Time;durP1;ratioP1;P1;durP2;ratioP2;P2;SDS_P1;SDS_P2;PMS_P1;PMS_P2;Temp;Humidity;BMP_temperature;BMP_pressure;BME280_temperature;BME280_humidity;BME280_pressure;Samples;Min_cycle;Max_cycle;Signal;HPM_P1;HPM_P2
2023/02/25 00:00:37;;;;;;;27.60;11.35;;;;;;;1.37;100.00;91772.25;2570022;23;20008;-86
2023/02/25 00:01:57;;;;;;;24.67;10.75;;;;;;;1.28;100.00;91777.22;2564970;23;20008;-83
2023/02/25 00:03:18;;;;;;;23.80;10.50;;;;;;;1.42;100.00;91771.84;2565410;23;20143;-88
2023/02/25 00:04:40;;;;;;;27.33;11.13;;;;;;;1.46;100.00;91768.03;2566053;23;20009;-87
2023/02/25 00:06:02;;;;;;;24.45;10.65;;;;;;;1.28;100.00;91770.09;2569889;23;20470;-88
2023/02/25 00:07:27;;;;;;;28.23;10.82;;;;;;;1.30;100.00;91773.06;2566013;23;20001;-89
2023/02/25 00:08:48;;;;;;;23.33;10.30;;;;;;;1.26;100.00;91780.22;2566987;23;20000;-88
2023/02/25 00:10:10;;;;;;;24.30;9.18;;;;;;;1.52;100.00;91776.97;2565991;23;20079;-88
2023/02/25 00:11:33;;;;;;;29.13;11.65;;;;;;;1.55;100.00;91779.97;2565901;23;20032;-91
2023/02/25 00:12:53;;;;;;;24.65;10.40;;;;;;;1.58;100.00;91779.97;2569862;23;20004;-90
2023/02/25 00:14:14;;;;;;;28.13;11.00;;;;;;;1.50;100.00;91778.53;2565668;23;20080;-88
2023/02/25 00:15:34;;;;;;;25.95;10.13;;;;;;;1.64;100.00;91775.00;2565540;23;20077;-89
2023/02/25 00:16:55;;;;;;;27.30;10.40;;;;;;;1.51;100.00;91775.50;2566012;23;20005;-86
2023/02/25 00:18:15;;;;;;;26.13;11.07;;;;;;;1.63;100.00;91774.25;2569881;23;20028;-88
2023/02/25 00:19:35;;;;;;;20.67;9.70;;;;;;;1.63;100.00;91768.25;2565477;23;20005;-89
2023/02/25 00:20:57;;;;;;;28.92;11.30;;;;;;;1.71;100.00;91765.16;2565720;23;20004;-86
2023/02/25 00:22:17;;;;;;;26.85;10.93;;;;;;;1.66;100.00;91762.19;2566032;23;20016;-88
2023/02/25 00:23:38;;;;;;;24.88;11.52;;;;;;;1.60;100.00;91761.13;2565449;23;20076;-88
2023/02/25 00:24:58;;;;;;;24.92;10.73;;;;;;;1.50;100.00;91768.75;2565751;23;20028;-88
2023/02/25 00:26:18;;;;;;;27.65;10.77;;;;;;;1.69;100.00;91772.69;2570222;22;20423;-87
2023/02/25 00:27:39;;;;;;;29.42;12.02;;;;;;;1.82;100.00;91780.81;2565706;23;20004;-87
2023/02/25 00:28:59;;;;;;;29.48;11.63;;;;;;;1.86;100.00;91776.25;2569820;23;20005;-89
2023/02/25 00:30:20;;;;;;;31.85;10.43;;;;;;;1.88;100.00;91776.59;2570729;23;20040;-90
2023/02/25 00:31:40;;;;;;;26.23;11.43;;;;;;;1.73;100.00;91789.19;2569512;23;20023;-88
2023/02/25 00:33:01;;;;;;;28.20;11.32;;;;;;;1.64;100.00;91796.06;2565539;23;20004;-89
2023/02/25 00:34:21;;;;;;;31.30;11.98;;;;;;;1.63;100.00;91795.31;2570072;23;20028;-88
2023/02/25 00:35:42;;;;;;;36.20;12.25;;;;;;;1.68;100.00;91796.78;2570940;23;20082;-90
2023/02/25 00:37:03;;;;;;;30.25;12.65;;;;;;;1.58;100.00;91798.38;2569979;23;20402;-88
2023/02/25 00:38:24;;;;;;;24.38;10.35;;;;;;;1.72;100.00;91797.50;2565990;23;20058;-89
2023/02/25 00:39:44;;;;;;;27.40;11.35;;;;;;;1.67;100.00;91797.94;2565734;23;20004;-88
2023/02/25 00:41:12;;;;;;;26.58;11.63;;;;;;;1.59;100.00;91799.13;2565484;23;20009;-85
2023/02/25 00:42:33;;;;;;;26.35;12.52;;;;;;;1.69;100.00;91804.28;2567171;23;20051;-86
2023/02/25 00:43:56;;;;;;;29.40;11.00;;;;;;;1.63;100.00;91813.00;2569642;23;20043;-87
2023/02/25 00:45:17;;;;;;;24.98;11.07;;;;;;;1.66;100.00;91822.75;2566471;23;20004;-88
2023/02/25 00:46:37;;;;;;;23.50;9.80;;;;;;;1.64;100.00;91820.50;2569709;23;20000;-87
2023/02/25 00:47:58;;;;;;;25.23;11.13;;;;;;;1.43;100.00;91831.22;2565841;23;20364;-87
2023/02/25 00:49:18;;;;;;;28.85;11.30;;;;;;;1.46;100.00;91830.47;2565722;23;20079;-85
2023/02/25 00:50:41;;;;;;;27.58;10.95;;;;;;;1.40;100.00;91822.22;2565714;23;20004;-86
2023/02/25 00:52:01;;;;;;;23.70;10.80;;;;;;;1.44;100.00;91833.47;2569851;23;20004;-87
2023/02/25 00:53:21;;;;;;;23.65;10.10;;;;;;;1.40;100.00;91830.13;2569766;23;20008;-87
2023/02/25 00:54:42;;;;;;;26.02;10.70;;;;;;;1.43;100.00;91839.88;2570201;23;20009;-85
2023/02/25 00:56:04;;;;;;;24.58;9.98;;;;;;;1.31;100.00;91832.44;2569810;23;20451;-86
2023/02/25 00:57:24;;;;;;;20.50;9.57;;;;;;;1.40;100.00;91829.38;2569952;23;20487;-87
2023/02/25 00:58:47;;;;;;;23.60;9.73;;;;;;;1.55;100.00;91837.91;2565448;23;20428;-86
2023/02/25 01:00:14;;;;;;;18.85;9.68;;;;;;;1.63;100.00;91831.44;2569746;23;20028;-87
2023/02/25 01:01:37;;;;;;;21.38;9.98;;;;;;;1.50;100.00;91821.41;2566573;23;20544;-87
2023/02/25 01:02:58;;;;;;;21.88;10.38;;;;;;;1.26;100.00;91827.59;2565764;23;20001;-85
2023/02/25 01:04:18;;;;;;;21.73;10.93;;;;;;;1.42;100.00;91827.84;2565912;23;20028;-88
2023/02/25 01:05:41;;;;;;;23.38;11.68;;;;;;;1.32;100.00;91831.34;2565631;23;20012;-85
2023/02/25 01:07:02;;;;;;;22.65;10.32;;;;;;;1.46;100.00;91830.47;2566072;23;20008;-88
2023/02/25 01:08:22;;;;;;;25.75;10.60;;;;;;;1.36;100.00;91821.53;2570620;23;20000;-88
2023/02/25 01:09:43;;;;;;;21.73;10.68;;;;;;;1.28;100.00;91824.59;2570845;23;20007;-86
2023/02/25 01:11:14;;;;;;;19.67;10.43;;;;;;;1.29;100.00;91829.47;2570480;23;20000;-85
2023/02/25 01:12:36;;;;;;;22.65;11.00;;;;;;;1.43;100.00;91824.09;2568173;23;20012;-86
2023/02/25 01:14:03;;;;;;;21.48;11.13;;;;;;;1.29;100.00;91824.22;2565997;23;20028;-86
2023/02/25 01:15:23;;;;;;;23.00;10.73;;;;;;;1.30;100.00;91825.69;2567054;23;20055;-88
2023/02/25 01:16:45;;;;;;;25.05;11.55;;;;;;;1.42;100.00;91825.22;2565857;23;20004;-89
2023/02/25 01:18:05;;;;;;;31.45;12.80;;;;;;;1.33;100.00;91829.44;2570054;23;20352;-84
2023/02/25 01:19:26;;;;;;;31.15;13.65;;;;;;;1.39;100.00;91836.53;2565857;23;20001;-89
2023/02/25 01:20:47;;;;;;;25.38;11.35;;;;;;;1.57;100.00;91828.47;2565722;23;20422;-87
2023/02/25 01:22:07;;;;;;;31.80;14.43;;;;;;;1.42;100.00;91830.50;2565223;23;20005;-86
2023/02/25 01:23:29;;;;;;;30.15;13.48;;;;;;;1.29;100.00;91834.75;2565407;23;20005;-87
2023/02/25 01:24:49;;;;;;;31.63;13.57;;;;;;;1.30;100.00;91835.47;2566084;23;20034;-86
2023/02/25 01:26:10;;;;;;;26.50;12.85;;;;;;;1.39;100.00;91831.25;2565586;23;20139;-86
2023/02/25 01:27:30;;;;;;;32.42;13.20;;;;;;;1.30;100.00;91825.69;2570535;23;20443;-89
2023/02/25 01:28:51;;;;;;;33.33;14.00;;;;;;;1.25;100.00;91824.22;2569988;23;20589;-89
2023/02/25 01:30:19;;;;;;;31.35;13.70;;;;;;;1.35;100.00;91817.38;2565635;23;20016;-89
2023/02/25 01:31:40;;;;;;;29.55;14.23;;;;;;;1.26;100.00;91815.19;2569639;23;20087;-88
2023/02/25 01:33:01;;;;;;;31.60;13.52;;;;;;;1.37;100.00;91812.50;2565519;23;20111;-89
2023/02/25 01:34:24;;;;;;;34.63;14.55;;;;;;;1.25;100.00;91818.22;2565644;23;20086;-86
2023/02/25 01:35:45;;;;;;;28.83;12.75;;;;;;;1.43;100.00;91818.81;2566727;23;20347;-90
2023/02/25 01:37:06;;;;;;;28.35;12.75;;;;;;;1.32;100.00;91826.06;2575216;23;20005;-86
2023/02/25 01:38:26;;;;;;;25.35;13.48;;;;;;;1.45;100.00;91824.47;2581472;23;20005;-84
2023/02/25 01:39:47;;;;;;;32.10;13.55;;;;;;;1.61;100.00;91823.19;2577131;23;20012;-88
2023/02/25 01:41:08;;;;;;;25.73;12.65;;;;;;;1.35;100.00;91817.38;2576736;23;20004;-87
2023/02/25 01:42:29;;;;;;;32.15;14.15;;;;;;;1.24;100.00;91822.00;2572803;23;20104;-87
2023/02/25 01:44:04;;;;;;;33.67;13.88;;;;;;;1.28;100.00;91820.09;2568006;23;20015;-88
2023/02/25 01:45:29;;;;;;;30.15;12.40;;;;;;;1.41;100.00;91821.09;2570487;23;20009;-87
2023/02/25 01:46:53;;;;;;;30.55;12.60;;;;;;;1.51;100.00;91822.88;2567964;23;20503;-88
2023/02/25 01:48:17;;;;;;;35.28;12.95;;;;;;;1.44;100.00;91832.72;2566954;23;20005;-89
2023/02/25 01:49:43;;;;;;;32.92;14.57;;;;;;;1.25;100.00;91832.13;2567033;23;20020;-87
2023/02/25 01:51:11;;;;;;;28.88;13.18;;;;;;;1.35;100.00;91829.78;2567451;23;20039;-90
2023/02/25 01:52:32;;;;;;;33.28;14.52;;;;;;;1.12;100.00;91828.47;2570152;23;20074;-86
2023/02/25 01:53:55;;;;;;;32.70;14.63;;;;;;;1.23;100.00;91829.16;2565959;23;20004;-90
2023/02/25 01:55:17;;;;;;;43.75;14.95;;;;;;;1.17;100.00;91830.69;2566359;23;20004;-89
2023/02/25 01:56:41;;;;;;;31.05;16.17;;;;;;;1.12;100.00;91833.72;2569884;23;20308;-88
2023/02/25 01:58:02;;;;;;;34.42;15.13;;;;;;;1.29;100.00;91826.84;2570287;23;20015;-91
2023/02/25 01:59:26;;;;;;;38.17;14.77;;;;;;;1.23;100.00;91837.03;2569707;23;20110;-88
2023/02/25 02:00:47;;;;;;;30.90;13.27;;;;;;;1.36;100.00;91823.38;2566384;23;20004;-87
2023/02/25 02:02:11;;;;;;;33.20;15.95;;;;;;;1.14;100.00;91835.97;2569888;23;20515;-89
2023/02/25 02:03:33;;;;;;;42.85;16.45;;;;;;;1.18;100.00;91847.22;2565891;23;20001;-87
2023/02/25 02:04:54;;;;;;;35.28;15.65;;;;;;;1.09;100.00;91852.16;2565705;23;20070;-87
2023/02/25 02:06:18;;;;;;;34.78;15.45;;;;;;;1.09;100.00;91844.28;2569917;23;20471;-89
2023/02/25 02:07:40;;;;;;;33.50;15.50;;;;;;;1.13;100.00;91845.75;2569377;23;20083;-86
2023/02/25 02:09:02;;;;;;;37.17;16.55;;;;;;;1.08;100.00;91854.06;2565491;23;20005;-87
2023/02/25 02:10:23;;;;;;;37.10;15.15;;;;;;;1.11;100.00;91853.28;2565974;23;20130;-89
2023/02/25 02:12:02;;;;;;;32.75;14.25;;;;;;;1.15;100.00;91848.00;2565790;23;20087;-90
2023/02/25 02:13:23;;;;;;;35.28;15.20;;;;;;;1.11;100.00;91855.94;2571246;23;20004;-91
2023/02/25 02:14:44;;;;;;;33.60;13.77;;;;;;;1.11;100.00;91855.19;2570216;23;20007;-87
2023/02/25 02:16:20;;;;;;;37.55;14.15;;;;;;;1.34;100.00;91857.25;2565975;23;20016;-87
2023/02/25 02:43:51;;;;;;;33.88;15.68;;;;;;;0.91;100.00;91866.19;2571163;22;20091;-87
2023/02/25 02:45:17;;;;;;;38.28;15.73;;;;;;;0.88;100.00;91861.72;2561356;23;20017;-88
2023/02/25 02:47:11;;;;;;;31.10;15.18;;;;;;;0.75;100.00;91858.78;2560615;23;20004;-88
2023/02/25 02:48:43;;;;;;;37.92;14.25;;;;;;;0.79;100.00;91858.78;2561226;23;20076;-87
2023/02/25 02:50:06;;;;;;;31.83;14.55;;;;;;;0.75;100.00;91860.66;2558558;23;20085;-90
2023/02/25 02:51:36;;;;;;;34.58;14.95;;;;;;;0.78;100.00;91862.50;2556892;23;20005;-87
2023/02/25 02:53:02;;;;;;;35.58;14.52;;;;;;;1.04;100.00;91863.84;2558834;23;20019;-86
2023/02/25 02:54:28;;;;;;;33.55;14.77;;;;;;;0.92;100.00;91865.06;2561043;23;20352;-87
2023/02/25 02:55:52;;;;;;;39.33;15.43;;;;;;;0.78;100.00;91872.28;2557846;23;20035;-89
2023/02/25 02:57:15;;;;;;;37.20;15.90;;;;;;;0.79;100.00;91879.81;2540328;23;20001;-86
2023/02/25 02:58:40;;;;;;;35.08;14.65;;;;;;;0.61;100.00;91879.13;2541355;23;20004;-89
2023/02/25 03:00:18;;;;;;;35.03;14.90;;;;;;;0.74;100.00;91882.81;2502862;23;20011;-86
2023/02/25 03:01:52;;;;;;;24.85;13.30;;;;;;;0.89;100.00;91878.25;2535594;23;20009;-87
2023/02/25 03:03:34;;;;;;;30.92;15.30;;;;;;;0.72;100.00;91877.22;2559950;23;20377;-87
2023/02/25 03:05:01;;;;;;;35.80;14.32;;;;;;;0.71;100.00;91873.84;2561797;23;20009;-87
2023/02/25 03:06:27;;;;;;;37.28;15.85;;;;;;;0.73;100.00;91884.69;2560720;23;20035;-86
2023/02/25 03:07:56;;;;;;;33.42;14.68;;;;;;;0.77;100.00;91870.78;2545639;23;20146;-89
2023/02/25 03:09:21;;;;;;;37.75;15.63;;;;;;;0.71;100.00;91873.09;2541094;23;20088;-89
2023/02/25 03:10:41;;;;;;;29.75;15.55;;;;;;;0.73;100.00;91873.44;2561381;23;20005;-87
2023/02/25 03:12:02;;;;;;;35.40;16.60;;;;;;;0.70;100.00;91866.31;2556016;23;20000;-89
2023/02/25 03:13:23;;;;;;;31.45;15.90;;;;;;;0.84;100.00;91874.13;2556133;23;20332;-88
2023/02/25 03:14:43;;;;;;;31.23;15.63;;;;;;;0.77;100.00;91873.44;2553578;23;20005;-86
2023/02/25 03:16:08;;;;;;;32.50;14.90;;;;;;;0.70;100.00;91877.59;2549090;23;20021;-87
2023/02/25 03:17:38;;;;;;;40.83;16.48;;;;;;;0.72;100.00;91879.84;2548974;23;20009;-89
2023/02/25 03:19:09;;;;;;;31.42;15.23;;;;;;;0.69;100.00;91881.34;2548644;23;20080;-89
2023/02/25 03:20:43;;;;;;;34.72;14.70;;;;;;;0.81;100.00;91868.91;2546473;23;20009;-85
2023/02/25 03:22:09;;;;;;;28.60;13.48;;;;;;;0.80;100.00;91864.78;2546886;23;20013;-90
2023/02/25 03:23:33;;;;;;;34.13;17.05;;;;;;;0.70;100.00;91866.31;2545170;23;20072;-88
2023/02/25 03:25:09;;;;;;;36.92;16.88;;;;;;;0.55;100.00;91867.53;2548919;23;20016;-88
2023/02/25 03:26:32;;;;;;;31.92;15.45;;;;;;;0.48;100.00;91871.69;2548999;23;20733;-87
2023/02/25 03:27:56;;;;;;;35.13;16.58;;;;;;;0.46;100.00;91871.31;2549325;23;20006;-86
2023/02/25 03:29:20;;;;;;;32.08;16.05;;;;;;;0.44;100.00;91870.97;2548409;23;20036;-87
2023/02/25 03:30:49;;;;;;;35.67;15.77;;;;;;;0.55;100.00;91876.16;2543370;23;20005;-85
2023/02/25 03:32:14;;;;;;;35.70;15.90;;;;;;;0.90;100.00;91869.97;2545929;23;20012;-90
2023/02/25 03:33:35;;;;;;;34.83;15.35;;;;;;;0.72;100.00;91883.22;2545259;23;20029;-87
2023/02/25 03:34:58;;;;;;;30.35;14.38;;;;;;;0.64;100.00;91883.63;2541874;23;20014;-88
2023/02/25 03:36:30;;;;;;;33.35;15.63;;;;;;;0.48;100.00;91884.06;2546610;23;20480;-87
2023/02/25 03:37:59;;;;;;;29.30;15.20;;;;;;;0.42;100.00;91888.22;2545923;23;20005;-86
2023/02/25 03:39:30;;;;;;;37.53;15.43;;;;;;;0.43;100.00;91882.59;2546597;23;20017;-88
2023/02/25 03:40:53;;;;;;;26.67;13.60;;;;;;;0.62;100.00;91883.28;2546277;23;20394;-86
2023/02/25 03:42:20;;;;;;;29.88;14.50;;;;;;;0.74;100.00;91888.81;2541600;23;20073;-87
2023/02/25 03:43:45;;;;;;;27.23;13.73;;;;;;;0.49;100.00;91890.84;2541859;23;20536;-87
2023/02/25 03:45:09;;;;;;;29.35;14.40;;;;;;;0.48;100.00;91897.97;2542111;23;20024;-85
2023/02/25 03:46:32;;;;;;;29.45;14.23;;;;;;;0.51;100.00;91899.09;2545232;23;20108;-87
2023/02/25 03:47:56;;;;;;;28.23;13.75;;;;;;;0.55;100.00;91891.19;2545397;23;20009;-87
2023/02/25 03:49:26;;;;;;;34.63;14.25;;;;;;;0.51;100.00;91899.09;2545881;23;20005;-88
2023/02/25 03:50:52;;;;;;;26.50;14.00;;;;;;;0.60;100.00;91893.41;2544073;23;20009;-87
2023/02/25 03:52:19;;;;;;;29.00;13.55;;;;;;;0.61;100.00;91905.41;2545992;23;20053;-87
2023/02/25 03:53:40;;;;;;;24.20;12.98;;;;;;;0.61;100.00;91893.03;2545940;23;20004;-87
2023/02/25 03:55:02;;;;;;;28.02;13.23;;;;;;;0.63;100.00;91897.91;2545491;23;20016;-88
2023/02/25 03:56:40;;;;;;;27.92;13.68;;;;;;;0.49;100.00;91898.72;2541954;23;20597;-86
2023/02/25 03:58:00;;;;;;;30.48;13.70;;;;;;;0.58;100.00;91900.94;2545649;23;20399;-88
2023/02/25 03:59:26;;;;;;;27.08;14.02;;;;;;;0.56;100.00;91901.31;2545639;23;20064;-87
2023/02/25 04:00:51;;;;;;;32.45;14.23;;;;;;;0.69;100.00;91897.13;2542446;23;20013;-86
2023/02/25 04:02:16;;;;;;;26.55;13.80;;;;;;;0.64;100.00;91894.88;2545333;23;20683;-88
2023/02/25 04:03:38;;;;;;;28.98;14.05;;;;;;;0.53;100.00;91894.19;2545507;23;20289;-87
2023/02/25 04:04:59;;;;;;;33.20;13.80;;;;;;;0.56;100.00;91901.31;2504321;23;20006;-88
2023/02/25 04:06:22;;;;;;;31.52;14.63;;;;;;;0.65;100.00;91896.38;2553583;23;20009;-88
2023/02/25 04:07:43;;;;;;;30.55;13.95;;;;;;;0.78;100.00;91896.69;2545175;23;20029;-86
2023/02/25 04:09:05;;;;;;;33.40;14.15;;;;;;;0.73;100.00;91895.22;2541133;23;20822;-88
2023/02/25 04:10:26;;;;;;;30.98;14.45;;;;;;;0.58;100.00;91893.81;2545353;23;20005;-89
2023/02/25 04:11:48;;;;;;;31.95;13.88;;;;;;;0.49;100.00;91901.34;2544857;23;20459;-86
2023/02/25 04:13:09;;;;;;;36.97;13.80;;;;;;;0.49;100.00;91902.09;2531765;23;20001;-89
2023/02/25 04:14:30;;;;;;;28.90;14.15;;;;;;;0.56;100.00;91901.31;2535277;23;20159;-88
2023/02/25 04:15:51;;;;;;;29.83;13.82;;;;;;;0.49;100.00;91903.97;2542205;23;20036;-88
2023/02/25 04:19:30;;;;;;;25.70;13.63;;;;;;;0.43;100.00;91900.25;2541662;23;20025;-90
2023/02/25 04:20:51;;;;;;;35.58;15.13;;;;;;;0.49;100.00;91898.72;2547354;23;20010;-88
2023/02/25 04:22:11;;;;;;;32.42;15.65;;;;;;;0.32;100.00;91894.28;2529109;23;20009;-87
2023/02/25 04:23:33;;;;;;;34.08;15.52;;;;;;;0.60;100.00;91909.19;2498731;23;20367;-89
2023/02/25 04:24:54;;;;;;;33.13;14.63;;;;;;;0.82;100.00;91899.31;2543557;23;20397;-89
2023/02/25 04:26:14;;;;;;;31.08;14.77;;;;;;;0.92;100.00;91891.38;2543035;23;20125;-87
2023/02/25 04:27:36;;;;;;;29.67;14.98;;;;;;;0.77;100.00;91900.47;2546658;23;20006;-89
2023/02/25 04:28:56;;;;;;;33.45;15.10;;;;;;;0.79;100.00;91900.84;2542654;23;20001;-88
2023/02/25 04:30:17;;;;;;;28.17;14.00;;;;;;;0.66;100.00;91903.16;2497671;23;20014;-88
2023/02/25 04:31:38;;;;;;;35.75;15.30;;;;;;;0.55;100.00;91899.06;2542093;23;20033;-87
2023/02/25 04:32:59;;;;;;;35.72;15.15;;;;;;;0.65;100.00;91906.16;2541655;23;20009;-86
2023/02/25 04:34:20;;;;;;;29.52;14.00;;;;;;;0.57;100.00;91902.81;2540578;23;20104;-90
2023/02/25 04:35:41;;;;;;;33.22;16.13;;;;;;;0.46;100.00;91899.47;2545656;23;20009;-88
2023/02/25 04:37:03;;;;;;;34.08;15.95;;;;;;;0.55;100.00;91907.69;2544764;23;20029;-88
2023/02/25 04:38:24;;;;;;;31.63;14.88;;;;;;;0.50;100.00;91902.84;2545184;23;20005;-90
2023/02/25 04:39:44;;;;;;;33.70;17.45;;;;;;;0.43;100.00;91902.88;2520444;23;20325;-91
2023/02/25 04:41:05;;;;;;;31.85;15.70;;;;;;;0.54;100.00;91902.84;2493234;23;20004;-88
2023/02/25 04:42:26;;;;;;;28.40;14.73;;;;;;;0.63;100.00;91903.91;2496242;23;20010;-88
2023/02/25 04:43:46;;;;;;;32.65;14.77;;;;;;;0.62;100.00;91910.31;2545784;23;20108;-88
2023/02/25 04:45:08;;;;;;;34.42;14.43;;;;;;;0.72;100.00;91906.88;2496905;23;20075;-87
2023/02/25 04:46:30;;;;;;;28.83;14.18;;;;;;;0.52;100.00;91905.09;2541469;23;20006;-90
2023/02/25 04:47:56;;;;;;;33.45;14.15;;;;;;;0.56;100.00;91909.19;2541027;23;20011;-88
2023/02/25 04:49:18;;;;;;;29.75;12.48;;;;;;;0.71;100.00;91909.91;2542269;23;20011;-86
2023/02/25 04:50:39;;;;;;;32.80;13.80;;;;;;;0.45;100.00;91911.88;2541469;23;20437;-89
2023/02/25 04:52:05;;;;;;;29.50;13.95;;;;;;;0.69;100.00;91907.63;2545596;23;20420;-90
2023/02/25 04:53:26;;;;;;;29.80;14.18;;;;;;;0.54;100.00;91910.72;2540886;23;20005;-89
2023/02/25 04:54:46;;;;;;;28.90;14.02;;;;;;;0.42;100.00;91911.88;2542558;23;20029;-89
2023/02/25 04:56:08;;;;;;;30.27;14.38;;;;;;;0.47;100.00;91917.50;2542144;23;20491;-88
2023/02/25 04:57:29;;;;;;;29.35;14.10;;;;;;;0.48;100.00;91907.72;2545152;23;20021;-84
2023/02/25 04:58:49;;;;;;;31.92;13.40;;;;;;;0.64;100.00;91923.06;2545215;23;20049;-83
2023/02/25 05:00:25;;;;;;;33.78;13.30;;;;;;;0.63;100.00;91924.22;2485699;23;20018;-87
2023/02/25 05:01:47;;;;;;;29.30;12.73;;;;;;;0.44;100.00;91922.75;2544229;23;20009;-88
2023/02/25 05:03:07;;;;;;;30.30;13.80;;;;;;;0.47;100.00;91922.00;2541243;23;20009;-88
2023/02/25 05:04:28;;;;;;;26.13;13.35;;;;;;;0.29;100.00;91918.69;2544636;23;20015;-88
2023/02/25 05:05:49;;;;;;;27.25;13.00;;;;;;;0.37;100.00;91914.91;2496817;23;20011;-88
2023/02/25 05:07:10;;;;;;;34.38;13.57;;;;;;;0.41;100.00;91913.78;2520985;23;20076;-89
2023/02/25 05:08:33;;;;;;;29.38;13.85;;;;;;;0.32;100.00;91920.56;2540237;23;20324;-88
2023/02/25 05:09:53;;;;;;;26.48;13.02;;;;;;;0.31;100.00;91914.56;2541559;23;20006;-89
2023/02/25 05:11:14;;;;;;;32.55;13.77;;;;;;;0.36;100.00;91910.78;2545506;23;20005;-86
2023/02/25 05:12:35;;;;;;;30.13;13.20;;;;;;;0.45;100.00;91927.66;2545184;23;20073;-87
2023/02/25 05:13:56;;;;;;;27.70;12.38;;;;;;;0.39;100.00;91921.28;2540678;23;20125;-89
2023/02/25 05:15:16;;;;;;;24.35;11.80;;;;;;;0.54;100.00;91910.72;2481196;23;20581;-88
2023/02/25 05:16:38;;;;;;;22.25;12.18;;;;;;;0.54;100.00;91913.34;2492662;23;20014;-87
2023/02/25 05:17:58;;;;;;;26.98;14.13;;;;;;;0.68;100.00;91915.91;2541120;23;20012;-88
2023/02/25 05:19:23;;;;;;;32.00;12.75;;;;;;;0.60;100.00;91911.81;2540433;23;20401;-89
2023/02/25 05:20:45;;;;;;;23.35;12.05;;;;;;;0.52;100.00;91912.97;2541860;23;20549;-88
2023/02/25 05:22:08;;;;;;;26.35;12.98;;;;;;;0.78;100.00;91917.00;2520980;23;20001;-87
2023/02/25 05:23:30;;;;;;;26.70;12.20;;;;;;;0.55;100.00;91914.84;2544947;23;20096;-89
2023/02/25 05:24:51;;;;;;;22.20;11.65;;;;;;;0.63;100.00;91917.06;2504671;23;20006;-90
2023/02/25 05:26:12;;;;;;;29.38;12.32;;;;;;;0.54;100.00;91911.47;2540569;23;20080;-88
2023/02/25 05:27:33;;;;;;;24.00;11.80;;;;;;;0.48;100.00;91918.25;2541230;23;20023;-88
2023/02/25 05:28:56;;;;;;;29.20;13.93;;;;;;;0.39;100.00;91904.75;2477228;23;19996;-90
2023/02/25 05:30:18;;;;;;;27.92;12.10;;;;;;;0.62;100.00;91918.19;2540578;23;20005;-88
2023/02/25 05:31:39;;;;;;;27.85;12.57;;;;;;;0.55;100.00;91914.84;2541624;23;20522;-88
2023/02/25 05:32:59;;;;;;;30.73;12.45;;;;;;;0.43;100.00;91916.00;2544280;23;20079;-88
2023/02/25 05:34:21;;;;;;;25.35;13.18;;;;;;;0.32;100.00;91913.44;2545593;23;20006;-89
2023/02/25 05:35:41;;;;;;;28.95;12.32;;;;;;;0.29;100.00;91921.31;2544828;23;20012;-87
2023/02/25 05:37:02;;;;;;;27.38;13.25;;;;;;;0.41;100.00;91919.03;2541298;23;20012;-89
2023/02/25 05:38:23;;;;;;;27.90;13.10;;;;;;;0.42;100.00;91922.41;2508410;23;20434;-87
2023/02/25 05:39:44;;;;;;;23.58;12.43;;;;;;;0.35;100.00;91917.16;2540752;23;20009;-86
2023/02/25 05:41:05;;;;;;;26.10;12.27;;;;;;;0.35;100.00;91923.19;2530727;23;20027;-87
2023/02/25 05:42:26;;;;;;;32.72;12.18;;;;;;;0.49;100.00;91917.13;2544808;23;20087;-89
2023/02/25 05:43:47;;;;;;;27.02;12.27;;;;;;;0.46;100.00;91917.88;2538896;23;20084;-87
2023/02/25 05:45:08;;;;;;;25.15;12.15;;;;;;;0.37;100.00;91912.28;2545224;23;20310;-86
2023/02/25 05:46:32;;;;;;;22.45;11.80;;;;;;;0.30;100.00;91912.28;2496396;23;20351;-88
2023/02/25 05:47:53;;;;;;;28.67;12.73;;;;;;;0.28;100.00;91917.19;2541558;23;20440;-88
2023/02/25 05:49:13;;;;;;;23.00;12.20;;;;;;;0.24;100.00;91915.31;2520499;23;20009;-87
2023/02/25 05:50:40;;;;;;;27.77;12.48;;;;;;;0.24;100.00;91923.19;2540594;23;20005;-86
2023/02/25 05:52:01;;;;;;;25.08;12.20;;;;;;;0.28;100.00;91911.94;2541663;23;20376;-88
2023/02/25 05:53:22;;;;;;;26.38;12.20;;;;;;;0.20;100.00;91909.31;2540635;23;19994;-87
2023/02/25 05:54:43;;;;;;;26.70;12.32;;;;;;;0.23;100.00;91920.97;2542932;23;20009;-88
2023/02/25 05:56:10;;;;;;;25.33;12.23;;;;;;;0.20;100.00;91922.47;2545276;23;20044;-88
2023/02/25 05:57:31;;;;;;;27.27;11.68;;;;;;;0.33;100.00;91920.16;2542902;23;20009;-89
2023/02/25 05:58:53;;;;;;;21.65;11.30;;;;;;;0.33;100.00;91916.81;2529124;23;20005;-86
2023/02/25 06:00:14;;;;;;;23.92;11.07;;;;;;;0.70;100.00;91919.69;2544782;23;20053;-88
2023/02/25 06:01:35;;;;;;;20.58;10.55;;;;;;;0.48;100.00;91924.28;2472673;24;20007;-88
2023/02/25 06:02:56;;;;;;;21.75;10.65;;;;;;;0.42;100.00;91925.78;2469091;24;20012;-88
2023/02/25 06:04:17;;;;;;;21.02;10.88;;;;;;;0.28;100.00;91928.44;2540477;23;20081;-90
2023/02/25 06:05:42;;;;;;;23.27;11.40;;;;;;;0.30;100.00;91934.06;2492219;23;20000;-87
2023/02/25 06:07:03;;;;;;;24.77;11.63;;;;;;;0.19;100.00;91936.00;2472997;24;20123;-88
2023/02/25 06:08:24;;;;;;;23.45;10.48;;;;;;;0.27;100.00;91934.84;2540787;23;20013;-88
2023/02/25 06:09:45;;;;;;;21.88;10.75;;;;;;;0.37;100.00;91931.44;2541081;23;20151;-89
2023/02/25 06:11:06;;;;;;;23.90;10.88;;;;;;;0.55;100.00;91939.25;2540767;23;20178;-86
2023/02/25 06:12:32;;;;;;;20.80;10.82;;;;;;;0.34;100.00;91940.06;2538804;23;20013;-87
2023/02/25 06:13:54;;;;;;;23.65;11.23;;;;;;;0.39;100.00;91934.41;2508224;23;20082;-89
2023/02/25 06:15:15;;;;;;;21.73;12.07;;;;;;;0.25;100.00;91944.97;2541107;23;20003;-88
2023/02/25 06:16:38;;;;;;;26.15;11.23;;;;;;;0.32;100.00;91947.59;2525387;23;20073;-90
2023/02/25 06:17:58;;;;;;;26.45;11.77;;;;;;;0.21;100.00;91944.97;2545139;23;20588;-87
2023/02/25 06:19:20;;;;;;;23.90;10.27;;;;;;;0.25;100.00;91945.72;2508354;23;20058;-87
2023/02/25 06:20:40;;;;;;;23.88;10.13;;;;;;;0.24;100.00;91943.47;2539201;23;20009;-89
2023/02/25 06:22:01;;;;;;;22.38;10.55;;;;;;;0.37;100.00;91941.19;2540251;23;20005;-88
2023/02/25 06:23:22;;;;;;;28.10;11.23;;;;;;;0.39;100.00;91941.56;2534010;23;20001;-87
2023/02/25 06:24:42;;;;;;;30.48;11.32;;;;;;;0.24;100.00;91946.09;2544331;23;20493;-87
2023/02/25 06:26:04;;;;;;;25.95;11.20;;;;;;;0.18;100.00;91945.00;2545197;23;20025;-88
2023/02/25 06:27:26;;;;;;;23.98;10.85;;;;;;;0.18;100.00;91937.13;2525595;23;20313;-89
2023/02/25 06:28:48;;;;;;;25.17;11.55;;;;;;;0.10;100.00;91941.63;2492795;23;20004;-87
2023/02/25 06:30:09;;;;;;;25.15;11.07;;;;;;;0.23;100.00;91945.34;2492689;23;20014;-88
2023/02/25 06:31:30;;;;;;;21.77;10.48;;;;;;;0.17;100.00;91940.84;2545373;23;20006;-89
2023/02/25 06:32:50;;;;;;;25.20;11.23;;;;;;;0.18;100.00;91945.75;2545323;23;20012;-89
2023/02/25 06:34:11;;;;;;;23.15;11.10;;;;;;;0.19;100.00;91938.63;2540755;23;20059;-90
2023/02/25 06:35:33;;;;;;;20.45;10.50;;;;;;;0.23;100.00;91944.59;2540557;23;20006;-87
2023/02/25 06:36:53;;;;;;;22.45;11.10;;;;;;;0.47;100.00;91946.41;2539408;23;20069;-87
2023/02/25 06:38:14;;;;;;;22.02;10.88;;;;;;;0.39;100.00;91952.81;2529172;23;20002;-89
2023/02/25 06:39:36;;;;;;;21.00;10.52;;;;;;;0.46;100.00;91941.53;2520431;23;20021;-87
2023/02/25 06:40:57;;;;;;;23.08;9.98;;;;;;;0.37;100.00;91943.81;2499849;23;20063;-88
2023/02/25 06:42:18;;;;;;;20.80;9.75;;;;;;;0.29;100.00;91937.81;2533083;23;20088;-88
2023/02/25 06:43:39;;;;;;;19.63;11.02;;;;;;;0.29;100.00;91940.47;2496324;23;20019;-89
2023/02/25 06:45:00;;;;;;;19.42;11.00;;;;;;;0.30;100.00;91941.19;2485631;23;20019;-88
2023/02/25 06:46:23;;;;;;;29.52;10.60;;;;;;;0.36;100.00;91940.44;2563412;23;20005;-88
2023/02/25 06:47:45;;;;;;;21.88;10.25;;;;;;;0.41;100.00;91944.56;2554758;23;20033;-87
2023/02/25 06:49:05;;;;;;;22.08;10.30;;;;;;;0.31;100.00;91956.59;2549673;23;20009;-88